Hoven, SD (57450)

12:36 PM CST on December 05, 2016 (GMT -0600)
Dakota Street | | Change Station
Active Advisory: Wind Advisory

Elev 2077 ft 45.01 °N, 99.97 °W | Updated 12 seconds ago

Overcast
Overcast
31.8 °F
Feels Like 20 °F
N
19.0
Wind Variable Wind from WNW
Gusts 22.4 mph

Today
High -- | Low -- °F
--% Chance of Precip.
Yesterday
High -- | Low -- °F
Precip. -- in
Pressure 29.52 in
Visibility 10.0 miles
Clouds Overcast 800 ft
Windchill 20 °F
Dew Point 24 °F
Humidity 73%
Rainfall 0.00 in
Snow Depth Not available.
8:02 AM 4:56 PM
Waxing Crescent, 33% visible
SPECI KMBG 051815Z AUTO 34010KT 10SM OVC008 01/M02 A2952 RMK AO2 T00061022
Pressure 29.52 in
Visibility 10.0 miles
Clouds Overcast 800 ft
Windchill 20 °F
Dew Point 24 °F
Humidity 73%
Rainfall 0.00 in
Snow Depth Not available.
8:02 AM 4:56 PM
Waxing Crescent, 33% visible
SPECI KMBG 051815Z AUTO 34010KT 10SM OVC008 01/M02 A2952 RMK AO2 T00061022

10-Day Weather Forecast

Almanac

Astronomy

Dec. 05, 2016 Rise Set
Actual Time
Civil Twilight
Nautical Twilight
Astronomical Twilight
Moon
Length of Visible Light
Length of Day
Tomorrow will be .
, % of the Moon is Illuminated

Today's Extremes

State Highs State Lows

Community

WunderPhotos

Upload Photos

1,955,849 photos uploaded!

WunderBlog® & News

Nearby

Air Quality

  Air Quality AQ Index Pollutant
Not available.

Snow Depth

Station Depth Elevation

Earthquake Activity

City Distance Mag. Time & Date
Minimum magnitude displayed is 2.5.

Coastal Water Temperatures

Place Temperature

Stations

Nearby Weather Stations

Station Location Temp. Windchill Dew Point Humidity Wind Precip. Elev Updated Type
                   

Watches & Warnings

Wind Advisory
Issued: 3:06 AM MST Dec. 5, 2016 – National Weather Service

... Wind Advisory in effect from noon CST /11 am MST/ today to
10 PM CST /9 PM MST/ this evening...

The National Weather Service in Aberdeen has issued a Wind
Advisory... which is in effect from noon CST /11 am MST/ today to
10 PM CST /9 PM MST/ this evening.

* Timing... the front is moving into the western Dakotas early
this morning and will reach the Missouri Valley by mid day.

* Winds... wind gusts will range between 40 and 50 mph.

* Impacts... isolated to scattered snow showers are possible as
the cold air scours out any moisture... visibility will be
greatly reduced due to blowing snow in the vicinity of these
showers.

Precautionary/preparedness actions...

A Wind Advisory means that sustained winds of 30 mph or higher
are expected. Winds this strong can make driving difficult...
especially for high profile vehicles. Use extra caution.



Connelly